sensor_id;sensor_type;location;lat;lon;timestamp;P1;durP1;ratioP1;P2;durP2;ratioP2
71502;SDS011;59322;51.382;7.372;2024-02-26T00:02:10;44.00;;;41.30;;
71502;SDS011;59322;51.382;7.372;2024-02-26T00:04:36;44.60;;;41.80;;
71502;SDS011;59322;51.382;7.372;2024-02-26T00:07:02;45.75;;;43.05;;
71502;SDS011;59322;51.382;7.372;2024-02-26T00:09:28;46.67;;;43.80;;
71502;SDS011;59322;51.382;7.372;2024-02-26T00:11:54;43.83;;;41.22;;
71502;SDS011;59322;51.382;7.372;2024-02-26T00:14:20;43.35;;;40.75;;
71502;SDS011;59322;51.382;7.372;2024-02-26T00:16:46;46.08;;;43.38;;
71502;SDS011;59322;51.382;7.372;2024-02-26T00:19:12;50.05;;;47.15;;
71502;SDS011;59322;51.382;7.372;2024-02-26T00:21:41;53.38;;;50.22;;
71502;SDS011;59322;51.382;7.372;2024-02-26T00:24:07;50.92;;;48.03;;
71502;SDS011;59322;51.382;7.372;2024-02-26T00:26:32;50.92;;;47.95;;
71502;SDS011;59322;51.382;7.372;2024-02-26T00:28:58;49.65;;;46.38;;
71502;SDS011;59322;51.382;7.372;2024-02-26T00:31:24;50.33;;;47.13;;
71502;SDS011;59322;51.382;7.372;2024-02-26T00:33:50;50.67;;;47.65;;
71502;SDS011;59322;51.382;7.372;2024-02-26T00:36:16;49.60;;;46.50;;
71502;SDS011;59322;51.382;7.372;2024-02-26T00:38:42;49.42;;;46.60;;
71502;SDS011;59322;51.382;7.372;2024-02-26T00:41:08;49.70;;;46.72;;
71502;SDS011;59322;51.382;7.372;2024-02-26T00:43:34;47.10;;;44.40;;
71502;SDS011;59322;51.382;7.372;2024-02-26T00:46:00;48.33;;;45.55;;
71502;SDS011;59322;51.382;7.372;2024-02-26T00:48:25;49.80;;;46.80;;
71502;SDS011;59322;51.382;7.372;2024-02-26T00:50:51;47.10;;;44.33;;
71502;SDS011;59322;51.382;7.372;2024-02-26T00:53:17;49.22;;;46.20;;
71502;SDS011;59322;51.382;7.372;2024-02-26T00:55:43;48.33;;;45.53;;
71502;SDS011;59322;51.382;7.372;2024-02-26T00:58:09;48.47;;;45.67;;
71502;SDS011;59322;51.382;7.372;2024-02-26T01:00:35;47.78;;;45.00;;
71502;SDS011;59322;51.382;7.372;2024-02-26T01:03:01;47.35;;;44.53;;
71502;SDS011;59322;51.382;7.372;2024-02-26T01:05:27;46.50;;;43.65;;
71502;SDS011;59322;51.382;7.372;2024-02-26T01:07:53;46.33;;;43.50;;
71502;SDS011;59322;51.382;7.372;2024-02-26T01:10:19;47.92;;;45.17;;
71502;SDS011;59322;51.382;7.372;2024-02-26T01:12:44;50.13;;;46.92;;
71502;SDS011;59322;51.382;7.372;2024-02-26T01:15:10;46.20;;;43.53;;
71502;SDS011;59322;51.382;7.372;2024-02-26T01:17:36;46.00;;;43.28;;
71502;SDS011;59322;51.382;7.372;2024-02-26T01:20:03;47.53;;;44.63;;
71502;SDS011;59322;51.382;7.372;2024-02-26T01:22:29;47.60;;;44.80;;
71502;SDS011;59322;51.382;7.372;2024-02-26T01:24:55;45.65;;;42.90;;
71502;SDS011;59322;51.382;7.372;2024-02-26T01:27:21;46.92;;;44.03;;
71502;SDS011;59322;51.382;7.372;2024-02-26T01:29:47;44.92;;;42.33;;
71502;SDS011;59322;51.382;7.372;2024-02-26T01:32:13;45.10;;;42.50;;
71502;SDS011;59322;51.382;7.372;2024-02-26T01:34:39;47.28;;;44.47;;
71502;SDS011;59322;51.382;7.372;2024-02-26T01:37:05;49.88;;;46.90;;
71502;SDS011;59322;51.382;7.372;2024-02-26T01:39:31;47.60;;;44.83;;
71502;SDS011;59322;51.382;7.372;2024-02-26T01:41:57;47.92;;;45.13;;
71502;SDS011;59322;51.382;7.372;2024-02-26T01:44:22;46.08;;;43.28;;
71502;SDS011;59322;51.382;7.372;2024-02-26T01:46:48;45.97;;;43.25;;
71502;SDS011;59322;51.382;7.372;2024-02-26T01:49:14;48.13;;;45.17;;
71502;SDS011;59322;51.382;7.372;2024-02-26T01:51:41;44.05;;;41.45;;
71502;SDS011;59322;51.382;7.372;2024-02-26T01:54:08;44.75;;;42.13;;
71502;SDS011;59322;51.382;7.372;2024-02-26T01:56:34;44.25;;;41.65;;
71502;SDS011;59322;51.382;7.372;2024-02-26T01:59:01;46.25;;;43.45;;
71502;SDS011;59322;51.382;7.372;2024-02-26T02:01:31;46.63;;;43.88;;
71502;SDS011;59322;51.382;7.372;2024-02-26T02:03:58;46.70;;;43.95;;
71502;SDS011;59322;51.382;7.372;2024-02-26T02:06:24;45.70;;;43.10;;
71502;SDS011;59322;51.382;7.372;2024-02-26T02:08:50;45.08;;;42.35;;
71502;SDS011;59322;51.382;7.372;2024-02-26T02:11:16;44.85;;;42.15;;
71502;SDS011;59322;51.382;7.372;2024-02-26T02:13:42;45.08;;;42.47;;
71502;SDS011;59322;51.382;7.372;2024-02-26T02:16:08;47.00;;;44.28;;
71502;SDS011;59322;51.382;7.372;2024-02-26T02:18:34;45.53;;;42.97;;
71502;SDS011;59322;51.382;7.372;2024-02-26T02:21:00;47.53;;;44.63;;
71502;SDS011;59322;51.382;7.372;2024-02-26T02:23:27;44.40;;;41.70;;
71502;SDS011;59322;51.382;7.372;2024-02-26T02:25:52;45.42;;;42.83;;
71502;SDS011;59322;51.382;7.372;2024-02-26T02:28:19;45.35;;;42.70;;
71502;SDS011;59322;51.382;7.372;2024-02-26T02:30:45;46.97;;;44.28;;
71502;SDS011;59322;51.382;7.372;2024-02-26T02:33:11;46.22;;;43.42;;
71502;SDS011;59322;51.382;7.372;2024-02-26T02:35:37;47.47;;;44.70;;
71502;SDS011;59322;51.382;7.372;2024-02-26T02:38:03;46.20;;;43.42;;
71502;SDS011;59322;51.382;7.372;2024-02-26T02:40:29;47.85;;;45.15;;
71502;SDS011;59322;51.382;7.372;2024-02-26T02:42:54;45.65;;;42.92;;
71502;SDS011;59322;51.382;7.372;2024-02-26T02:45:20;47.90;;;45.00;;
71502;SDS011;59322;51.382;7.372;2024-02-26T02:47:46;47.58;;;44.53;;
71502;SDS011;59322;51.382;7.372;2024-02-26T02:50:12;45.38;;;42.78;;
71502;SDS011;59322;51.382;7.372;2024-02-26T02:52:38;47.47;;;44.67;;
71502;SDS011;59322;51.382;7.372;2024-02-26T02:55:04;46.45;;;43.75;;
71502;SDS011;59322;51.382;7.372;2024-02-26T02:57:30;44.78;;;42.17;;
71502;SDS011;59322;51.382;7.372;2024-02-26T02:59:56;46.20;;;43.42;;
71502;SDS011;59322;51.382;7.372;2024-02-26T03:02:22;44.78;;;42.03;;
71502;SDS011;59322;51.382;7.372;2024-02-26T03:04:48;45.15;;;42.47;;
71502;SDS011;59322;51.382;7.372;2024-02-26T03:07:14;46.72;;;43.90;;
71502;SDS011;59322;51.382;7.372;2024-02-26T03:09:40;45.38;;;42.78;;
71502;SDS011;59322;51.382;7.372;2024-02-26T03:12:05;43.83;;;41.33;;
71502;SDS011;59322;51.382;7.372;2024-02-26T03:14:31;42.40;;;39.90;;
71502;SDS011;59322;51.382;7.372;2024-02-26T03:16:58;41.97;;;39.50;;
71502;SDS011;59322;51.382;7.372;2024-02-26T03:19:24;39.90;;;37.60;;
71502;SDS011;59322;51.382;7.372;2024-02-26T03:21:50;42.22;;;39.72;;
71502;SDS011;59322;51.382;7.372;2024-02-26T03:24:16;42.30;;;39.67;;
71502;SDS011;59322;51.382;7.372;2024-02-26T03:26:42;37.60;;;35.17;;
71502;SDS011;59322;51.382;7.372;2024-02-26T03:29:08;36.47;;;34.30;;
71502;SDS011;59322;51.382;7.372;2024-02-26T03:31:34;33.53;;;31.27;;
71502;SDS011;59322;51.382;7.372;2024-02-26T03:34:00;30.23;;;28.42;;
71502;SDS011;59322;51.382;7.372;2024-02-26T03:36:26;30.88;;;28.88;;
71502;SDS011;59322;51.382;7.372;2024-02-26T03:38:51;29.08;;;26.88;;
71502;SDS011;59322;51.382;7.372;2024-02-26T03:41:17;26.90;;;25.20;;
71502;SDS011;59322;51.382;7.372;2024-02-26T03:43:43;27.35;;;25.70;;
71502;SDS011;59322;51.382;7.372;2024-02-26T03:46:09;26.90;;;25.25;;
71502;SDS011;59322;51.382;7.372;2024-02-26T03:48:35;26.13;;;24.52;;
71502;SDS011;59322;51.382;7.372;2024-02-26T03:51:01;23.88;;;22.35;;
71502;SDS011;59322;51.382;7.372;2024-02-26T03:53:27;25.80;;;23.83;;
71502;SDS011;59322;51.382;7.372;2024-02-26T03:55:53;25.58;;;23.58;;
71502;SDS011;59322;51.382;7.372;2024-02-26T03:58:19;24.42;;;22.63;;
71502;SDS011;59322;51.382;7.372;2024-02-26T04:00:45;23.20;;;20.90;;
71502;SDS011;59322;51.382;7.372;2024-02-26T04:03:10;21.20;;;19.70;;
71502;SDS011;59322;51.382;7.372;2024-02-26T04:05:36;20.63;;;19.17;;
71502;SDS011;59322;51.382;7.372;2024-02-26T04:08:02;20.60;;;19.15;;
71502;SDS011;59322;51.382;7.372;2024-02-26T04:10:28;20.73;;;19.10;;
71502;SDS011;59322;51.382;7.372;2024-02-26T04:12:54;19.90;;;18.58;;
71502;SDS011;59322;51.382;7.372;2024-02-26T04:15:20;19.85;;;18.55;;
71502;SDS011;59322;51.382;7.372;2024-02-26T04:17:46;19.00;;;17.70;;
71502;SDS011;59322;51.382;7.372;2024-02-26T04:20:15;19.35;;;18.05;;
71502;SDS011;59322;51.382;7.372;2024-02-26T04:22:41;19.55;;;18.35;;
71502;SDS011;59322;51.382;7.372;2024-02-26T04:25:07;18.75;;;17.45;;
71502;SDS011;59322;51.382;7.372;2024-02-26T04:27:33;19.05;;;17.85;;
71502;SDS011;59322;51.382;7.372;2024-02-26T04:29:59;18.77;;;17.45;;
71502;SDS011;59322;51.382;7.372;2024-02-26T04:32:25;18.50;;;17.10;;
71502;SDS011;59322;51.382;7.372;2024-02-26T04:34:51;18.98;;;17.67;;
71502;SDS011;59322;51.382;7.372;2024-02-26T04:37:17;19.13;;;17.63;;
71502;SDS011;59322;51.382;7.372;2024-02-26T04:39:43;18.55;;;17.15;;
71502;SDS011;59322;51.382;7.372;2024-02-26T04:42:09;17.85;;;16.65;;
71502;SDS011;59322;51.382;7.372;2024-02-26T04:44:34;17.85;;;16.55;;
71502;SDS011;59322;51.382;7.372;2024-02-26T04:47:00;18.35;;;17.05;;
71502;SDS011;59322;51.382;7.372;2024-02-26T04:49:26;17.63;;;16.38;;
71502;SDS011;59322;51.382;7.372;2024-02-26T04:51:52;17.60;;;16.15;;
71502;SDS011;59322;51.382;7.372;2024-02-26T04:54:18;17.42;;;16.23;;
71502;SDS011;59322;51.382;7.372;2024-02-26T04:56:44;18.20;;;16.80;;
71502;SDS011;59322;51.382;7.372;2024-02-26T04:59:10;17.75;;;16.48;;
71502;SDS011;59322;51.382;7.372;2024-02-26T05:01:36;17.00;;;15.60;;
71502;SDS011;59322;51.382;7.372;2024-02-26T05:04:02;17.75;;;16.38;;
71502;SDS011;59322;51.382;7.372;2024-02-26T05:06:28;16.20;;;14.98;;
71502;SDS011;59322;51.382;7.372;2024-02-26T05:08:54;16.95;;;15.75;;
71502;SDS011;59322;51.382;7.372;2024-02-26T05:11:20;16.20;;;14.88;;
71502;SDS011;59322;51.382;7.372;2024-02-26T05:13:47;17.10;;;15.80;;
71502;SDS011;59322;51.382;7.372;2024-02-26T05:16:13;16.50;;;15.30;;
71502;SDS011;59322;51.382;7.372;2024-02-26T05:18:39;17.08;;;15.48;;
71502;SDS011;59322;51.382;7.372;2024-02-26T05:21:05;16.05;;;14.77;;
71502;SDS011;59322;51.382;7.372;2024-02-26T05:23:30;15.48;;;14.18;;
71502;SDS011;59322;51.382;7.372;2024-02-26T05:25:56;15.25;;;14.15;;
71502;SDS011;59322;51.382;7.372;2024-02-26T05:28:22;15.05;;;13.95;;
71502;SDS011;59322;51.382;7.372;2024-02-26T05:30:48;15.23;;;14.05;;
71502;SDS011;59322;51.382;7.372;2024-02-26T05:33:14;16.48;;;15.32;;
71502;SDS011;59322;51.382;7.372;2024-02-26T05:35:40;16.55;;;15.18;;
71502;SDS011;59322;51.382;7.372;2024-02-26T05:38:06;17.00;;;15.70;;
71502;SDS011;59322;51.382;7.372;2024-02-26T05:40:32;15.75;;;14.45;;
71502;SDS011;59322;51.382;7.372;2024-02-26T05:42:58;15.95;;;14.73;;
71502;SDS011;59322;51.382;7.372;2024-02-26T05:45:23;14.90;;;13.73;;
71502;SDS011;59322;51.382;7.372;2024-02-26T05:47:49;15.57;;;14.32;;
71502;SDS011;59322;51.382;7.372;2024-02-26T05:50:15;14.75;;;13.45;;
71502;SDS011;59322;51.382;7.372;2024-02-26T05:52:41;16.05;;;14.85;;
71502;SDS011;59322;51.382;7.372;2024-02-26T05:55:07;16.15;;;14.63;;
71502;SDS011;59322;51.382;7.372;2024-02-26T05:57:34;15.45;;;14.05;;
71502;SDS011;59322;51.382;7.372;2024-02-26T06:00:00;16.60;;;15.15;;
71502;SDS011;59322;51.382;7.372;2024-02-26T06:02:26;15.38;;;14.25;;
71502;SDS011;59322;51.382;7.372;2024-02-26T06:04:51;15.60;;;14.38;;
71502;SDS011;59322;51.382;7.372;2024-02-26T06:07:17;16.25;;;14.95;;
71502;SDS011;59322;51.382;7.372;2024-02-26T06:09:43;15.85;;;14.65;;
71502;SDS011;59322;51.382;7.372;2024-02-26T06:12:09;15.75;;;14.55;;
71502;SDS011;59322;51.382;7.372;2024-02-26T06:14:35;15.27;;;14.07;;
71502;SDS011;59322;51.382;7.372;2024-02-26T06:17:01;15.82;;;14.48;;
71502;SDS011;59322;51.382;7.372;2024-02-26T06:19:27;15.65;;;14.23;;
71502;SDS011;59322;51.382;7.372;2024-02-26T06:21:53;15.82;;;14.60;;
71502;SDS011;59322;51.382;7.372;2024-02-26T06:24:19;15.27;;;13.98;;
71502;SDS011;59322;51.382;7.372;2024-02-26T06:26:44;16.05;;;14.77;;
71502;SDS011;59322;51.382;7.372;2024-02-26T06:29:10;16.95;;;15.55;;
71502;SDS011;59322;51.382;7.372;2024-02-26T06:31:36;15.82;;;14.63;;
71502;SDS011;59322;51.382;7.372;2024-02-26T06:34:02;16.33;;;14.82;;
71502;SDS011;59322;51.382;7.372;2024-02-26T06:36:28;16.42;;;14.95;;
71502;SDS011;59322;51.382;7.372;2024-02-26T06:38:54;16.23;;;14.85;;
71502;SDS011;59322;51.382;7.372;2024-02-26T06:41:20;15.60;;;14.40;;
71502;SDS011;59322;51.382;7.372;2024-02-26T06:43:46;15.63;;;14.43;;
71502;SDS011;59322;51.382;7.372;2024-02-26T06:46:12;15.95;;;14.55;;
71502;SDS011;59322;51.382;7.372;2024-02-26T06:48:38;16.00;;;14.75;;
71502;SDS011;59322;51.382;7.372;2024-02-26T06:53:48;16.75;;;15.45;;
71502;SDS011;59322;51.382;7.372;2024-02-26T06:58:59;17.45;;;15.75;;
71502;SDS011;59322;51.382;7.372;2024-02-26T07:04:09;16.48;;;14.75;;
71502;SDS011;59322;51.382;7.372;2024-02-26T07:06:35;17.77;;;16.15;;
71502;SDS011;59322;51.382;7.372;2024-02-26T07:09:01;18.48;;;16.73;;
71502;SDS011;59322;51.382;7.372;2024-02-26T07:11:27;18.73;;;17.10;;
71502;SDS011;59322;51.382;7.372;2024-02-26T07:13:53;18.98;;;17.17;;
71502;SDS011;59322;51.382;7.372;2024-02-26T07:16:19;17.92;;;16.27;;
71502;SDS011;59322;51.382;7.372;2024-02-26T07:18:45;18.27;;;16.63;;
71502;SDS011;59322;51.382;7.372;2024-02-26T07:21:13;17.45;;;16.08;;
71502;SDS011;59322;51.382;7.372;2024-02-26T07:23:39;18.55;;;16.77;;
71502;SDS011;59322;51.382;7.372;2024-02-26T07:26:05;18.60;;;17.02;;
71502;SDS011;59322;51.382;7.372;2024-02-26T07:28:31;17.90;;;16.38;;
71502;SDS011;59322;51.382;7.372;2024-02-26T07:30:57;17.90;;;16.40;;
71502;SDS011;59322;51.382;7.372;2024-02-26T07:33:23;17.90;;;16.38;;
71502;SDS011;59322;51.382;7.372;2024-02-26T07:35:49;17.77;;;16.33;;
71502;SDS011;59322;51.382;7.372;2024-02-26T07:38:15;19.63;;;17.92;;
71502;SDS011;59322;51.382;7.372;2024-02-26T07:40:41;18.55;;;16.95;;
71502;SDS011;59322;51.382;7.372;2024-02-26T07:43:07;17.02;;;15.52;;
71502;SDS011;59322;51.382;7.372;2024-02-26T07:45:33;18.73;;;16.92;;
71502;SDS011;59322;51.382;7.372;2024-02-26T07:47:58;18.73;;;17.13;;
71502;SDS011;59322;51.382;7.372;2024-02-26T07:50:24;17.92;;;16.55;;
71502;SDS011;59322;51.382;7.372;2024-02-26T07:52:50;18.65;;;16.85;;
71502;SDS011;59322;51.382;7.372;2024-02-26T07:55:16;18.95;;;17.35;;
71502;SDS011;59322;51.382;7.372;2024-02-26T07:57:42;18.08;;;16.48;;
71502;SDS011;59322;51.382;7.372;2024-02-26T08:00:08;19.10;;;17.40;;
71502;SDS011;59322;51.382;7.372;2024-02-26T08:02:34;18.60;;;17.05;;
71502;SDS011;59322;51.382;7.372;2024-02-26T08:05:00;19.05;;;17.42;;
71502;SDS011;59322;51.382;7.372;2024-02-26T08:07:26;20.92;;;19.02;;
71502;SDS011;59322;51.382;7.372;2024-02-26T08:09:52;19.85;;;18.05;;
71502;SDS011;59322;51.382;7.372;2024-02-26T08:12:18;19.58;;;17.67;;
71502;SDS011;59322;51.382;7.372;2024-02-26T08:14:44;19.55;;;17.73;;
71502;SDS011;59322;51.382;7.372;2024-02-26T08:17:10;19.52;;;17.83;;
71502;SDS011;59322;51.382;7.372;2024-02-26T08:19:36;19.65;;;17.50;;
71502;SDS011;59322;51.382;7.372;2024-02-26T08:22:02;18.83;;;17.25;;
71502;SDS011;59322;51.382;7.372;2024-02-26T08:24:28;19.80;;;18.10;;
71502;SDS011;59322;51.382;7.372;2024-02-26T08:26:54;19.38;;;17.70;;
71502;SDS011;59322;51.382;7.372;2024-02-26T08:29:20;19.10;;;17.50;;
71502;SDS011;59322;51.382;7.372;2024-02-26T08:31:46;19.08;;;17.48;;
71502;SDS011;59322;51.382;7.372;2024-02-26T08:34:11;18.98;;;17.35;;
71502;SDS011;59322;51.382;7.372;2024-02-26T08:36:37;19.02;;;17.52;;
71502;SDS011;59322;51.382;7.372;2024-02-26T08:39:03;18.35;;;16.85;;
71502;SDS011;59322;51.382;7.372;2024-02-26T08:41:29;18.58;;;16.95;;
71502;SDS011;59322;51.382;7.372;2024-02-26T08:43:55;19.80;;;18.20;;
71502;SDS011;59322;51.382;7.372;2024-02-26T08:46:21;19.30;;;17.63;;
71502;SDS011;59322;51.382;7.372;2024-02-26T08:48:47;19.05;;;17.35;;
71502;SDS011;59322;51.382;7.372;2024-02-26T08:51:13;18.98;;;17.38;;
71502;SDS011;59322;51.382;7.372;2024-02-26T08:53:39;19.92;;;18.23;;
71502;SDS011;59322;51.382;7.372;2024-02-26T08:56:05;19.67;;;18.08;;
71502;SDS011;59322;51.382;7.372;2024-02-26T08:58:31;19.85;;;17.73;;
71502;SDS011;59322;51.382;7.372;2024-02-26T09:00:57;20.17;;;18.23;;
71502;SDS011;59322;51.382;7.372;2024-02-26T09:03:23;19.77;;;18.08;;
71502;SDS011;59322;51.382;7.372;2024-02-26T09:05:49;21.52;;;19.63;;
71502;SDS011;59322;51.382;7.372;2024-02-26T09:08:15;20.55;;;18.75;;
71502;SDS011;59322;51.382;7.372;2024-02-26T09:10:41;19.45;;;17.83;;
71502;SDS011;59322;51.382;7.372;2024-02-26T09:13:07;20.20;;;18.48;;
71502;SDS011;59322;51.382;7.372;2024-02-26T09:15:33;19.52;;;17.95;;
71502;SDS011;59322;51.382;7.372;2024-02-26T09:17:59;20.48;;;18.73;;
71502;SDS011;59322;51.382;7.372;2024-02-26T09:20:25;21.20;;;19.13;;
71502;SDS011;59322;51.382;7.372;2024-02-26T09:22:51;19.17;;;17.67;;
71502;SDS011;59322;51.382;7.372;2024-02-26T09:25:17;19.95;;;18.33;;
71502;SDS011;59322;51.382;7.372;2024-02-26T09:27:43;20.25;;;18.65;;
71502;SDS011;59322;51.382;7.372;2024-02-26T09:30:10;20.75;;;18.92;;
71502;SDS011;59322;51.382;7.372;2024-02-26T09:32:36;20.55;;;18.60;;
71502;SDS011;59322;51.382;7.372;2024-02-26T09:35:02;20.40;;;18.60;;
71502;SDS011;59322;51.382;7.372;2024-02-26T09:37:28;20.13;;;18.42;;
71502;SDS011;59322;51.382;7.372;2024-02-26T09:39:54;19.48;;;17.88;;
71502;SDS011;59322;51.382;7.372;2024-02-26T09:42:20;20.20;;;18.45;;
71502;SDS011;59322;51.382;7.372;2024-02-26T09:44:46;19.70;;;17.70;;
71502;SDS011;59322;51.382;7.372;2024-02-26T09:47:12;19.88;;;17.92;;
71502;SDS011;59322;51.382;7.372;2024-02-26T09:49:40;20.65;;;18.67;;
71502;SDS011;59322;51.382;7.372;2024-02-26T09:52:06;20.25;;;18.10;;
71502;SDS011;59322;51.382;7.372;2024-02-26T09:54:34;20.83;;;18.90;;
71502;SDS011;59322;51.382;7.372;2024-02-26T09:57:00;19.17;;;17.48;;
71502;SDS011;59322;51.382;7.372;2024-02-26T09:59:27;20.38;;;18.58;;
71502;SDS011;59322;51.382;7.372;2024-02-26T10:01:53;20.75;;;19.00;;
71502;SDS011;59322;51.382;7.372;2024-02-26T10:04:20;20.52;;;18.83;;
71502;SDS011;59322;51.382;7.372;2024-02-26T10:09:30;21.15;;;19.35;;
71502;SDS011;59322;51.382;7.372;2024-02-26T10:22:56;19.83;;;18.02;;
71502;SDS011;59322;51.382;7.372;2024-02-26T10:28:06;20.33;;;18.52;;
71502;SDS011;59322;51.382;7.372;2024-02-26T10:30:36;20.50;;;18.50;;
71502;SDS011;59322;51.382;7.372;2024-02-26T10:33:02;21.80;;;19.73;;
71502;SDS011;59322;51.382;7.372;2024-02-26T10:35:28;22.98;;;20.40;;
71502;SDS011;59322;51.382;7.372;2024-02-26T10:37:54;21.77;;;19.63;;
71502;SDS011;59322;51.382;7.372;2024-02-26T10:40:20;21.58;;;19.55;;
71502;SDS011;59322;51.382;7.372;2024-02-26T10:42:45;21.38;;;19.30;;
71502;SDS011;59322;51.382;7.372;2024-02-26T10:45:11;21.35;;;19.38;;
71502;SDS011;59322;51.382;7.372;2024-02-26T10:47:37;22.50;;;20.38;;
71502;SDS011;59322;51.382;7.372;2024-02-26T10:50:04;22.13;;;20.23;;
71502;SDS011;59322;51.382;7.372;2024-02-26T10:52:34;21.83;;;19.98;;
71502;SDS011;59322;51.382;7.372;2024-02-26T10:55:03;22.30;;;20.20;;
71502;SDS011;59322;51.382;7.372;2024-02-26T10:57:33;21.38;;;18.73;;
71502;SDS011;59322;51.382;7.372;2024-02-26T11:00:00;21.48;;;19.48;;
71502;SDS011;59322;51.382;7.372;2024-02-26T11:02:27;19.38;;;17.75;;
71502;SDS011;59322;51.382;7.372;2024-02-26T11:04:53;20.02;;;18.08;;
71502;SDS011;59322;51.382;7.372;2024-02-26T11:07:19;20.30;;;18.60;;
71502;SDS011;59322;51.382;7.372;2024-02-26T11:09:46;21.67;;;19.73;;
71502;SDS011;59322;51.382;7.372;2024-02-26T11:12:12;21.58;;;19.67;;
71502;SDS011;59322;51.382;7.372;2024-02-26T11:14:39;22.20;;;20.23;;
71502;SDS011;59322;51.382;7.372;2024-02-26T11:17:07;23.23;;;21.02;;
71502;SDS011;59322;51.382;7.372;2024-02-26T11:19:34;24.08;;;21.55;;
71502;SDS011;59322;51.382;7.372;2024-02-26T11:22:01;23.08;;;20.88;;
71502;SDS011;59322;51.382;7.372;2024-02-26T11:24:27;22.17;;;20.27;;
71502;SDS011;59322;51.382;7.372;2024-02-26T11:26:54;25.08;;;22.88;;
71502;SDS011;59322;51.382;7.372;2024-02-26T11:29:21;23.02;;;20.80;;
71502;SDS011;59322;51.382;7.372;2024-02-26T11:31:48;22.52;;;20.33;;
71502;SDS011;59322;51.382;7.372;2024-02-26T11:34:14;24.63;;;22.23;;
71502;SDS011;59322;51.382;7.372;2024-02-26T11:36:40;23.13;;;20.88;;
71502;SDS011;59322;51.382;7.372;2024-02-26T11:39:06;23.52;;;21.17;;
71502;SDS011;59322;51.382;7.372;2024-02-26T11:41:32;25.40;;;22.90;;
71502;SDS011;59322;51.382;7.372;2024-02-26T11:43:58;27.70;;;25.23;;
71502;SDS011;59322;51.382;7.372;2024-02-26T11:46:26;27.73;;;25.15;;
71502;SDS011;59322;51.382;7.372;2024-02-26T11:48:54;27.85;;;25.30;;
71502;SDS011;59322;51.382;7.372;2024-02-26T11:51:24;31.92;;;28.95;;
71502;SDS011;59322;51.382;7.372;2024-02-26T11:53:50;37.25;;;33.95;;
71502;SDS011;59322;51.382;7.372;2024-02-26T11:58:45;41.35;;;37.90;;
71502;SDS011;59322;51.382;7.372;2024-02-26T12:03:56;43.67;;;39.88;;
71502;SDS011;59322;51.382;7.372;2024-02-26T12:06:22;46.60;;;43.00;;
71502;SDS011;59322;51.382;7.372;2024-02-26T12:08:48;46.13;;;42.40;;
71502;SDS011;59322;51.382;7.372;2024-02-26T12:11:14;44.70;;;41.20;;
71502;SDS011;59322;51.382;7.372;2024-02-26T12:13:40;48.85;;;45.25;;
71502;SDS011;59322;51.382;7.372;2024-02-26T12:16:06;47.80;;;44.25;;
71502;SDS011;59322;51.382;7.372;2024-02-26T12:18:32;51.22;;;47.42;;
71502;SDS011;59322;51.382;7.372;2024-02-26T12:21:03;46.33;;;43.05;;
71502;SDS011;59322;51.382;7.372;2024-02-26T12:23:29;44.95;;;41.75;;
71502;SDS011;59322;51.382;7.372;2024-02-26T12:25:58;44.30;;;41.10;;
71502;SDS011;59322;51.382;7.372;2024-02-26T12:28:30;45.05;;;41.45;;
71502;SDS011;59322;51.382;7.372;2024-02-26T12:30:56;47.17;;;43.88;;
71502;SDS011;59322;51.382;7.372;2024-02-26T12:33:23;46.45;;;43.17;;
71502;SDS011;59322;51.382;7.372;2024-02-26T12:35:50;44.40;;;41.30;;
71502;SDS011;59322;51.382;7.372;2024-02-26T12:38:16;44.20;;;41.10;;
71502;SDS011;59322;51.382;7.372;2024-02-26T12:40:42;48.53;;;45.17;;
71502;SDS011;59322;51.382;7.372;2024-02-26T12:43:07;47.83;;;44.63;;
71502;SDS011;59322;51.382;7.372;2024-02-26T12:45:33;47.80;;;44.38;;
71502;SDS011;59322;51.382;7.372;2024-02-26T12:47:59;45.80;;;42.60;;
71502;SDS011;59322;51.382;7.372;2024-02-26T12:50:25;47.08;;;43.97;;
71502;SDS011;59322;51.382;7.372;2024-02-26T12:52:51;47.58;;;44.28;;
71502;SDS011;59322;51.382;7.372;2024-02-26T12:55:18;51.70;;;48.17;;
71502;SDS011;59322;51.382;7.372;2024-02-26T12:57:44;55.40;;;51.67;;
71502;SDS011;59322;51.382;7.372;2024-02-26T13:00:14;54.92;;;51.22;;
71502;SDS011;59322;51.382;7.372;2024-02-26T13:02:41;52.50;;;49.00;;
71502;SDS011;59322;51.382;7.372;2024-02-26T13:05:08;56.03;;;52.35;;
71502;SDS011;59322;51.382;7.372;2024-02-26T13:07:34;58.22;;;54.33;;
71502;SDS011;59322;51.382;7.372;2024-02-26T13:10:00;56.67;;;52.88;;
71502;SDS011;59322;51.382;7.372;2024-02-26T13:12:26;57.10;;;53.30;;
71502;SDS011;59322;51.382;7.372;2024-02-26T13:15:02;57.42;;;53.50;;
71502;SDS011;59322;51.382;7.372;2024-02-26T13:17:31;58.03;;;54.13;;
71502;SDS011;59322;51.382;7.372;2024-02-26T13:19:57;58.85;;;54.78;;
71502;SDS011;59322;51.382;7.372;2024-02-26T13:22:23;60.72;;;56.70;;
71502;SDS011;59322;51.382;7.372;2024-02-26T13:24:55;59.67;;;55.67;;
71502;SDS011;59322;51.382;7.372;2024-02-26T13:27:22;53.70;;;50.20;;
71502;SDS011;59322;51.382;7.372;2024-02-26T13:29:48;56.13;;;52.38;;
71502;SDS011;59322;51.382;7.372;2024-02-26T13:32:14;56.75;;;52.83;;
71502;SDS011;59322;51.382;7.372;2024-02-26T13:34:40;57.10;;;53.35;;
71502;SDS011;59322;51.382;7.372;2024-02-26T13:37:06;54.95;;;51.28;;
71502;SDS011;59322;51.382;7.372;2024-02-26T13:39:32;56.53;;;52.50;;
71502;SDS011;59322;51.382;7.372;2024-02-26T13:41:58;54.03;;;50.33;;
71502;SDS011;59322;51.382;7.372;2024-02-26T13:44:24;53.40;;;49.80;;
71502;SDS011;59322;51.382;7.372;2024-02-26T13:46:49;55.67;;;52.08;;
71502;SDS011;59322;51.382;7.372;2024-02-26T13:49:15;54.70;;;51.10;;
71502;SDS011;59322;51.382;7.372;2024-02-26T13:51:41;58.45;;;54.55;;
71502;SDS011;59322;51.382;7.372;2024-02-26T13:54:07;56.38;;;52.70;;
71502;SDS011;59322;51.382;7.372;2024-02-26T13:56:33;55.40;;;51.58;;
71502;SDS011;59322;51.382;7.372;2024-02-26T13:58:59;53.67;;;50.13;;
71502;SDS011;59322;51.382;7.372;2024-02-26T14:01:25;58.75;;;54.95;;
71502;SDS011;59322;51.382;7.372;2024-02-26T14:03:51;54.40;;;50.90;;
71502;SDS011;59322;51.382;7.372;2024-02-26T14:06:17;54.92;;;51.22;;
71502;SDS011;59322;51.382;7.372;2024-02-26T14:08:43;51.40;;;48.10;;
71502;SDS011;59322;51.382;7.372;2024-02-26T14:11:09;48.50;;;45.30;;
71502;SDS011;59322;51.382;7.372;2024-02-26T14:13:35;45.58;;;42.25;;
71502;SDS011;59322;51.382;7.372;2024-02-26T14:16:00;47.40;;;44.33;;
71502;SDS011;59322;51.382;7.372;2024-02-26T14:18:26;44.97;;;41.88;;
71502;SDS011;59322;51.382;7.372;2024-02-26T14:20:52;47.22;;;43.80;;
71502;SDS011;59322;51.382;7.372;2024-02-26T14:23:18;47.13;;;44.03;;
71502;SDS011;59322;51.382;7.372;2024-02-26T14:28:28;51.80;;;48.20;;
71502;SDS011;59322;51.382;7.372;2024-02-26T14:33:39;52.95;;;49.38;;
71502;SDS011;59322;51.382;7.372;2024-02-26T14:38:49;54.15;;;50.50;;
71502;SDS011;59322;51.382;7.372;2024-02-26T14:44:00;57.78;;;53.97;;
71502;SDS011;59322;51.382;7.372;2024-02-26T14:46:26;59.40;;;55.35;;
71502;SDS011;59322;51.382;7.372;2024-02-26T14:48:52;57.35;;;53.47;;
71502;SDS011;59322;51.382;7.372;2024-02-26T14:51:18;52.50;;;49.00;;
71502;SDS011;59322;51.382;7.372;2024-02-26T14:53:44;50.40;;;47.15;;
71502;SDS011;59322;51.382;7.372;2024-02-26T14:56:09;46.58;;;43.17;;